• Join FlightAware (Why Join?)
  • Login
  • US Flag 
06:04AM EST


 

Airport Tracker/Info


-or-


 

Live Flight TrackerFlight Track Log ✈ SKW6492 ✈ 13-May-2013 ✈ KDEN - KCOD

Flight Track Log - Related Links

Times and Time Zones

All times are in EDT time to prevent confusion due to time zone crossing. See the SKW6492 flight status page for this flight to view local times or setup timezone preferences in your user account.

Time Position Orientation Groundspeed Altitude Reporting Facility
EDT Latitude Longitude Course Direction KTS MPH feet Rate Location/Type
09:36PM 39.8833 -104.5500 348° North 217 250 7,800  Level Denver TRACON
09:37PM 39.9167 -104.4500 66° East 276 318 8,700 1,320 Climbing Denver TRACON
09:38PM 40.2708 -104.8029 347° North  Level FlightAware Approximate
09:38PM 39.9833 -104.4333 11° North 306 352 10,400  Level Denver TRACON
09:39PM 40.3763 -104.8365 346° North  Level FlightAware Approximate
09:39PM 40.0667 -104.4333 360° North 309 356 12,700  Level Denver TRACON
09:40PM 40.4815 -104.8716 346° North  Level FlightAware Approximate
09:40PM 40.1606 -104.4464 354° North 307 353 14,800  Level Denver Center
09:41PM 40.5873 -104.9035 348° North  Level FlightAware Approximate
09:41PM 40.2419 -104.4997 333° Northwest 304 350 16,600  Level Denver Center
09:42PM 40.3475 -104.5686 334° Northwest 350 403 17,200 960 Climbing Denver Center
09:43PM 40.4367 -104.6247 334° Northwest 354 407 18,700 1,500 Climbing Denver Center
09:44PM 40.5314 -104.6872 333° Northwest 355 409 20,600 1,500 Climbing Denver Center
09:45PM 40.6378 -104.7572 333° Northwest 351 404 22,100 1,200 Climbing Denver Center
09:46PM 40.7297 -104.8164 334° Northwest 366 421 23,100 960 Climbing Denver Center
09:47PM 40.8264 -104.8678 338° Northwest 355 409 24,200 900 Climbing Denver Center
09:48PM 40.9219 -104.9125 341° North 373 429 25,000 780 Climbing Denver Center
09:49PM 41.0283 -104.9867 332° Northwest 391 450 25,800 660 Climbing Denver Center
09:50PM 41.1103 -105.0717 322° Northwest 394 453 26,400 600 Climbing Denver Center
09:52PM 41.2067 -105.1772 321° Northwest 399 459 27,100 540 Climbing Denver Center
09:53PM 41.2900 -105.2667 321° Northwest 399 459 27,600 480 Climbing Denver Center
09:54PM 41.3750 -105.3564 322° Northwest 404 465 28,100 480 Climbing Denver Center
09:55PM 41.4756 -105.4681 320° Northwest 413 475 28,700 480 Climbing Denver Center
09:56PM 41.5614 -105.5614 321° Northwest 415 478 29,100 480 Climbing Denver Center
09:57PM 41.6614 -105.6728 320° Northwest 416 479 29,700 480 Climbing Denver Center
09:58PM 41.7450 -105.7636 321° Northwest 410 472 30,200 600 Climbing Denver Center
09:59PM 41.8414 -105.8711 320° Northwest 406 467 31,000 660 Climbing Denver Center
10:00PM 41.9239 -105.9622 321° Northwest 399 459 31,600 480 Climbing Denver Center
10:01PM 42.0069 -106.0536 321° Northwest 399 459 32,000 120 Climbing Denver Center
10:02PM 42.1031 -106.1628 320° Northwest 404 465 32,000  Level Denver Center
10:03PM 42.2181 -106.2917 320° Northwest 420 483 32,000  Level Denver Center
10:04PM 42.3050 -106.3894 320° Northwest 424 488 32,000  Level Denver Center
10:05PM 42.3908 -106.4864 320° Northwest 422 486 32,000  Level Denver Center
10:06PM 42.4906 -106.6008 320° Northwest 420 483 32,000  Level Denver Center
10:07PM 42.5753 -106.6967 320° Northwest 417 480 32,000  Level Denver Center
10:08PM 42.6731 -106.8092 320° Northwest 414 476 32,000  Level Denver Center
10:09PM 42.7564 -106.9053 320° Northwest 412 474 32,000  Level Denver Center
10:10PM 42.8517 -107.0167 319° Northwest 406 467 32,000  Level Denver Center
10:11PM 42.9353 -107.1114 320° Northwest 409 471 32,000  Level Denver Center
10:13PM 43.0167 -107.2086 319° Northwest 408 470 32,000  Level Denver Center
10:14PM 43.1294 -107.3392 320° Northwest 409 471 32,000  Level Denver Center
10:15PM 43.2119 -107.4378 319° Northwest 412 474 32,000  Level Denver Center
10:15PM 43.2950 -107.5364 319° Northwest 413 475 32,000  Level Salt Lake Center
10:16PM 43.3786 -107.6356 319° Northwest 415 478 32,000  Level Salt Lake Center
10:17PM 43.4758 -107.7506 319° Northwest 412 474 32,000  Level Salt Lake Center
10:19PM 43.5583 -107.8506 319° Northwest 411 473 32,000  Level Salt Lake Center
10:20PM 43.6417 -107.9481 320° Northwest 410 472 32,000 -1,320 Level Salt Lake Center
10:21PM 43.7386 -108.0647 319° Northwest 413 475 29,300 -2,760 Descending Salt Lake Center
10:22PM 43.8369 -108.1442 330° Northwest 428 493 26,400 -2,880 Descending Salt Lake Center
10:23PM 43.9550 -108.2275 333° Northwest 426 490 23,400 -2,640 Descending Salt Lake Center
10:24PM 44.0519 -108.2939 334° Northwest 411 473 21,100 -2,400 Descending Salt Lake Center
10:25PM 44.1408 -108.3581 333° Northwest 387 445 18,600 -2,700 Descending Salt Lake Center
10:26PM 44.2442 -108.4322 333° Northwest 378 435 15,600 -2,760 Descending Salt Lake Center
10:27PM 44.3331 -108.4950 333° Northwest 375 432 13,000 -2,280 Descending Salt Lake Center
10:28PM 44.4317 -108.5653 333° Northwest 366 421 11,000 -1,620 Descending Salt Lake Center
10:29PM 44.5008 -108.6158 332° Northwest 323 372 9,800 -840 Descending Salt Lake Center
10:30PM 44.5675 -108.6625 333° Northwest 296 341 9,400 -720 Descending Salt Lake Center
10:31PM 44.6258 -108.7219 324° Northwest 256 295 8,400 -840 Descending Salt Lake Center
10:32PM 44.6536 -108.7728 308° West 210 242 7,700 -480 Descending Salt Lake Center
10:33PM 44.6281 -108.8325 239° Southwest 173 199 7,500 -60 Descending Salt Lake Center
10:34PM 44.6025 -108.8797 233° Southwest 164 189 7,600 -300 Climbing Salt Lake Center
10:35PM 44.5800 -108.9222 233° Southwest 153 176 6,900 -780 Descending Salt Lake Center
10:36PM 44.5533 -108.9694 232° Southwest 143 165 6,100 -780 Descending Salt Lake Center